sensor_id;sensor_type;location;lat;lon;timestamp;temperature;humidity
53208;DHT22;39093;52.788;6.940;2022-10-30T00:00:39;15.50;99.90
53208;DHT22;39093;52.788;6.940;2022-10-30T00:03:13;15.50;99.90
53208;DHT22;39093;52.788;6.940;2022-10-30T00:05:41;15.40;99.90
53208;DHT22;39093;52.788;6.940;2022-10-30T00:08:10;15.40;99.90
53208;DHT22;39093;52.788;6.940;2022-10-30T00:10:38;15.40;99.90
53208;DHT22;39093;52.788;6.940;2022-10-30T00:13:05;15.40;99.90
53208;DHT22;39093;52.788;6.940;2022-10-30T00:15:32;15.50;99.90
53208;DHT22;39093;52.788;6.940;2022-10-30T00:17:59;15.40;99.90
53208;DHT22;39093;52.788;6.940;2022-10-30T00:20:26;15.50;99.90
53208;DHT22;39093;52.788;6.940;2022-10-30T00:22:53;15.50;99.90
53208;DHT22;39093;52.788;6.940;2022-10-30T00:25:21;15.50;99.90
53208;DHT22;39093;52.788;6.940;2022-10-30T00:27:47;15.50;99.90
53208;DHT22;39093;52.788;6.940;2022-10-30T00:30:14;15.50;99.90
53208;DHT22;39093;52.788;6.940;2022-10-30T00:32:42;15.60;99.90
53208;DHT22;39093;52.788;6.940;2022-10-30T00:35:10;15.60;99.90
53208;DHT22;39093;52.788;6.940;2022-10-30T00:37:37;15.60;99.90
53208;DHT22;39093;52.788;6.940;2022-10-30T00:40:04;15.70;99.90
53208;DHT22;39093;52.788;6.940;2022-10-30T00:42:32;15.50;99.90
53208;DHT22;39093;52.788;6.940;2022-10-30T00:44:59;15.50;99.90
53208;DHT22;39093;52.788;6.940;2022-10-30T00:47:31;15.60;99.90
53208;DHT22;39093;52.788;6.940;2022-10-30T00:50:11;15.60;99.90
53208;DHT22;39093;52.788;6.940;2022-10-30T00:55:41;15.50;99.90
53208;DHT22;39093;52.788;6.940;2022-10-30T00:58:11;15.50;99.90
53208;DHT22;39093;52.788;6.940;2022-10-30T01:00:43;15.40;99.90
53208;DHT22;39093;52.788;6.940;2022-10-30T01:03:12;15.40;99.90
53208;DHT22;39093;52.788;6.940;2022-10-30T01:05:42;15.40;99.90
53208;DHT22;39093;52.788;6.940;2022-10-30T01:08:09;15.40;99.90
53208;DHT22;39093;52.788;6.940;2022-10-30T01:10:37;15.40;99.90
53208;DHT22;39093;52.788;6.940;2022-10-30T01:13:04;15.30;99.90
53208;DHT22;39093;52.788;6.940;2022-10-30T01:15:39;15.40;99.90
53208;DHT22;39093;52.788;6.940;2022-10-30T01:21:17;15.20;99.90
53208;DHT22;39093;52.788;6.940;2022-10-30T01:29:43;15.20;99.90
53208;DHT22;39093;52.788;6.940;2022-10-30T01:35:01;15.20;99.90
53208;DHT22;39093;52.788;6.940;2022-10-30T01:37:34;15.10;99.90
53208;DHT22;39093;52.788;6.940;2022-10-30T01:40:08;15.10;99.90
53208;DHT22;39093;52.788;6.940;2022-10-30T01:42:56;15.00;99.90
53208;DHT22;39093;52.788;6.940;2022-10-30T01:59:21;14.80;99.90
53208;DHT22;39093;52.788;6.940;2022-10-30T02:01:49;14.80;99.90
53208;DHT22;39093;52.788;6.940;2022-10-30T02:04:16;14.70;99.90
53208;DHT22;39093;52.788;6.940;2022-10-30T02:06:44;14.70;99.90
53208;DHT22;39093;52.788;6.940;2022-10-30T02:09:14;14.60;99.90
53208;DHT22;39093;52.788;6.940;2022-10-30T02:11:41;14.60;99.90
53208;DHT22;39093;52.788;6.940;2022-10-30T02:14:08;14.50;99.90
53208;DHT22;39093;52.788;6.940;2022-10-30T02:16:41;14.50;99.90
53208;DHT22;39093;52.788;6.940;2022-10-30T02:19:10;14.50;99.90
53208;DHT22;39093;52.788;6.940;2022-10-30T02:21:37;14.50;99.90
53208;DHT22;39093;52.788;6.940;2022-10-30T02:24:04;14.50;99.90
53208;DHT22;39093;52.788;6.940;2022-10-30T02:26:31;14.50;99.90
53208;DHT22;39093;52.788;6.940;2022-10-30T02:28:57;14.40;99.90
53208;DHT22;39093;52.788;6.940;2022-10-30T02:31:24;14.40;99.90
53208;DHT22;39093;52.788;6.940;2022-10-30T02:33:51;14.40;99.90
53208;DHT22;39093;52.788;6.940;2022-10-30T02:36:18;14.30;99.90
53208;DHT22;39093;52.788;6.940;2022-10-30T02:38:45;14.40;99.90
53208;DHT22;39093;52.788;6.940;2022-10-30T02:41:12;14.30;99.90
53208;DHT22;39093;52.788;6.940;2022-10-30T02:43:39;14.30;99.90
53208;DHT22;39093;52.788;6.940;2022-10-30T02:46:05;14.30;99.90
53208;DHT22;39093;52.788;6.940;2022-10-30T02:48:32;14.30;99.90
53208;DHT22;39093;52.788;6.940;2022-10-30T02:51:00;14.30;99.90
53208;DHT22;39093;52.788;6.940;2022-10-30T02:53:27;14.30;99.90
53208;DHT22;39093;52.788;6.940;2022-10-30T02:55:54;14.30;99.90
53208;DHT22;39093;52.788;6.940;2022-10-30T02:58:21;14.20;99.90
53208;DHT22;39093;52.788;6.940;2022-10-30T03:00:48;14.30;99.90
53208;DHT22;39093;52.788;6.940;2022-10-30T03:03:14;14.30;99.90
53208;DHT22;39093;52.788;6.940;2022-10-30T03:05:47;14.20;99.90
53208;DHT22;39093;52.788;6.940;2022-10-30T03:08:13;14.20;99.90
53208;DHT22;39093;52.788;6.940;2022-10-30T03:10:40;14.30;99.90
53208;DHT22;39093;52.788;6.940;2022-10-30T03:13:07;14.20;99.90
53208;DHT22;39093;52.788;6.940;2022-10-30T03:15:34;14.30;99.90
53208;DHT22;39093;52.788;6.940;2022-10-30T03:18:01;14.20;99.90
53208;DHT22;39093;52.788;6.940;2022-10-30T03:20:27;14.20;99.90
53208;DHT22;39093;52.788;6.940;2022-10-30T03:22:54;14.20;99.90
53208;DHT22;39093;52.788;6.940;2022-10-30T03:25:21;14.20;99.90
53208;DHT22;39093;52.788;6.940;2022-10-30T03:27:49;14.10;99.90
53208;DHT22;39093;52.788;6.940;2022-10-30T03:30:17;14.10;99.90
53208;DHT22;39093;52.788;6.940;2022-10-30T03:32:44;14.10;99.90
53208;DHT22;39093;52.788;6.940;2022-10-30T03:35:12;14.10;99.90
53208;DHT22;39093;52.788;6.940;2022-10-30T03:37:39;14.10;99.90
53208;DHT22;39093;52.788;6.940;2022-10-30T03:40:06;14.00;99.90
53208;DHT22;39093;52.788;6.940;2022-10-30T03:42:33;14.00;99.90
53208;DHT22;39093;52.788;6.940;2022-10-30T03:45:00;14.00;99.90
53208;DHT22;39093;52.788;6.940;2022-10-30T03:47:27;14.00;99.90
53208;DHT22;39093;52.788;6.940;2022-10-30T03:49:54;14.00;99.90
53208;DHT22;39093;52.788;6.940;2022-10-30T03:52:21;13.90;99.90
53208;DHT22;39093;52.788;6.940;2022-10-30T03:54:47;13.90;99.90
53208;DHT22;39093;52.788;6.940;2022-10-30T03:57:14;13.90;99.90
53208;DHT22;39093;52.788;6.940;2022-10-30T03:59:41;13.90;99.90
53208;DHT22;39093;52.788;6.940;2022-10-30T04:02:08;13.90;99.90
53208;DHT22;39093;52.788;6.940;2022-10-30T04:04:35;13.90;99.90
53208;DHT22;39093;52.788;6.940;2022-10-30T04:07:02;13.90;99.90
53208;DHT22;39093;52.788;6.940;2022-10-30T04:09:28;13.80;99.90
53208;DHT22;39093;52.788;6.940;2022-10-30T04:11:55;13.90;99.90
53208;DHT22;39093;52.788;6.940;2022-10-30T04:14:22;13.80;99.90
53208;DHT22;39093;52.788;6.940;2022-10-30T04:16:49;13.80;99.90
53208;DHT22;39093;52.788;6.940;2022-10-30T04:19:15;13.80;99.90
53208;DHT22;39093;52.788;6.940;2022-10-30T04:21:42;13.80;99.90
53208;DHT22;39093;52.788;6.940;2022-10-30T04:24:09;13.80;99.90
53208;DHT22;39093;52.788;6.940;2022-10-30T04:26:36;13.80;99.90
53208;DHT22;39093;52.788;6.940;2022-10-30T04:29:03;13.80;99.90
53208;DHT22;39093;52.788;6.940;2022-10-30T04:31:30;13.80;99.90
53208;DHT22;39093;52.788;6.940;2022-10-30T04:33:57;13.90;99.90
53208;DHT22;39093;52.788;6.940;2022-10-30T04:36:23;13.80;99.90
53208;DHT22;39093;52.788;6.940;2022-10-30T04:38:56;13.80;99.90
53208;DHT22;39093;52.788;6.940;2022-10-30T04:41:22;13.80;99.90
53208;DHT22;39093;52.788;6.940;2022-10-30T04:43:50;13.80;99.90
53208;DHT22;39093;52.788;6.940;2022-10-30T04:46:17;13.70;99.90
53208;DHT22;39093;52.788;6.940;2022-10-30T04:48:44;13.70;99.90
53208;DHT22;39093;52.788;6.940;2022-10-30T04:51:11;13.70;99.90
53208;DHT22;39093;52.788;6.940;2022-10-30T04:53:38;13.70;99.90
53208;DHT22;39093;52.788;6.940;2022-10-30T04:56:05;13.70;99.90
53208;DHT22;39093;52.788;6.940;2022-10-30T04:58:32;13.70;99.90
53208;DHT22;39093;52.788;6.940;2022-10-30T05:01:03;13.70;99.90
53208;DHT22;39093;52.788;6.940;2022-10-30T05:03:31;13.70;99.90
53208;DHT22;39093;52.788;6.940;2022-10-30T05:06:03;13.60;99.90
53208;DHT22;39093;52.788;6.940;2022-10-30T05:08:32;13.70;99.90
53208;DHT22;39093;52.788;6.940;2022-10-30T05:10:59;13.60;99.90
53208;DHT22;39093;52.788;6.940;2022-10-30T05:13:29;13.70;99.90
53208;DHT22;39093;52.788;6.940;2022-10-30T05:15:56;13.60;99.90
53208;DHT22;39093;52.788;6.940;2022-10-30T05:18:23;13.60;99.90
53208;DHT22;39093;52.788;6.940;2022-10-30T05:20:50;13.60;99.90
53208;DHT22;39093;52.788;6.940;2022-10-30T05:23:16;13.60;99.90
53208;DHT22;39093;52.788;6.940;2022-10-30T05:25:43;13.50;99.90
53208;DHT22;39093;52.788;6.940;2022-10-30T05:28:10;13.50;99.90
53208;DHT22;39093;52.788;6.940;2022-10-30T05:30:37;13.50;99.90
53208;DHT22;39093;52.788;6.940;2022-10-30T05:33:06;13.50;99.90
53208;DHT22;39093;52.788;6.940;2022-10-30T05:35:34;13.50;99.90
53208;DHT22;39093;52.788;6.940;2022-10-30T05:38:03;13.40;99.90
53208;DHT22;39093;52.788;6.940;2022-10-30T05:40:30;13.40;99.90
53208;DHT22;39093;52.788;6.940;2022-10-30T05:42:57;13.30;99.90
53208;DHT22;39093;52.788;6.940;2022-10-30T05:45:24;13.30;99.90
53208;DHT22;39093;52.788;6.940;2022-10-30T05:48:03;13.30;99.90
53208;DHT22;39093;52.788;6.940;2022-10-30T05:50:30;13.30;99.90
53208;DHT22;39093;52.788;6.940;2022-10-30T05:53:01;13.20;99.90
53208;DHT22;39093;52.788;6.940;2022-10-30T05:55:28;13.30;99.90
53208;DHT22;39093;52.788;6.940;2022-10-30T05:57:56;13.20;99.90
53208;DHT22;39093;52.788;6.940;2022-10-30T06:00:26;13.20;99.90
53208;DHT22;39093;52.788;6.940;2022-10-30T06:03:01;13.10;99.90
53208;DHT22;39093;52.788;6.940;2022-10-30T06:05:31;13.10;99.90
53208;DHT22;39093;52.788;6.940;2022-10-30T06:07:59;13.10;99.90
53208;DHT22;39093;52.788;6.940;2022-10-30T06:10:26;13.10;99.90
53208;DHT22;39093;52.788;6.940;2022-10-30T06:12:58;13.10;99.90
53208;DHT22;39093;52.788;6.940;2022-10-30T06:15:27;13.00;99.90
53208;DHT22;39093;52.788;6.940;2022-10-30T06:17:54;13.00;99.90
53208;DHT22;39093;52.788;6.940;2022-10-30T06:20:23;13.00;99.90
53208;DHT22;39093;52.788;6.940;2022-10-30T06:23:05;13.00;99.90
53208;DHT22;39093;52.788;6.940;2022-10-30T06:25:34;13.00;99.90
53208;DHT22;39093;52.788;6.940;2022-10-30T06:28:08;12.90;99.90
53208;DHT22;39093;52.788;6.940;2022-10-30T06:30:35;13.00;99.90
53208;DHT22;39093;52.788;6.940;2022-10-30T06:33:03;13.00;99.90
53208;DHT22;39093;52.788;6.940;2022-10-30T06:35:30;12.90;99.90
53208;DHT22;39093;52.788;6.940;2022-10-30T06:37:57;13.00;99.90
53208;DHT22;39093;52.788;6.940;2022-10-30T06:40:28;12.90;99.90
53208;DHT22;39093;52.788;6.940;2022-10-30T06:42:57;13.00;99.90
53208;DHT22;39093;52.788;6.940;2022-10-30T06:45:25;13.00;99.90
53208;DHT22;39093;52.788;6.940;2022-10-30T06:47:52;12.90;99.90
53208;DHT22;39093;52.788;6.940;2022-10-30T06:50:20;12.90;99.90
53208;DHT22;39093;52.788;6.940;2022-10-30T06:52:47;12.90;99.90
53208;DHT22;39093;52.788;6.940;2022-10-30T06:55:15;13.00;99.90
53208;DHT22;39093;52.788;6.940;2022-10-30T06:57:42;13.00;99.90
53208;DHT22;39093;52.788;6.940;2022-10-30T07:00:10;13.00;99.90
53208;DHT22;39093;52.788;6.940;2022-10-30T07:02:37;12.90;99.90
53208;DHT22;39093;52.788;6.940;2022-10-30T07:05:04;13.00;99.90
53208;DHT22;39093;52.788;6.940;2022-10-30T07:07:31;13.00;99.90
53208;DHT22;39093;52.788;6.940;2022-10-30T07:09:58;13.00;99.90
53208;DHT22;39093;52.788;6.940;2022-10-30T07:12:25;13.00;99.90
53208;DHT22;39093;52.788;6.940;2022-10-30T07:14:52;13.00;99.90
53208;DHT22;39093;52.788;6.940;2022-10-30T07:17:18;13.00;99.90
53208;DHT22;39093;52.788;6.940;2022-10-30T07:19:45;13.00;99.90
53208;DHT22;39093;52.788;6.940;2022-10-30T07:22:12;13.10;99.90
53208;DHT22;39093;52.788;6.940;2022-10-30T07:24:39;13.10;99.90
53208;DHT22;39093;52.788;6.940;2022-10-30T07:27:06;13.10;99.90
53208;DHT22;39093;52.788;6.940;2022-10-30T07:29:32;13.10;99.90
53208;DHT22;39093;52.788;6.940;2022-10-30T07:31:59;13.20;99.90
53208;DHT22;39093;52.788;6.940;2022-10-30T07:34:29;13.20;99.90
53208;DHT22;39093;52.788;6.940;2022-10-30T07:36:56;13.20;99.90
53208;DHT22;39093;52.788;6.940;2022-10-30T07:39:23;13.30;99.90
53208;DHT22;39093;52.788;6.940;2022-10-30T07:41:50;13.30;99.90
53208;DHT22;39093;52.788;6.940;2022-10-30T07:44:17;13.30;99.90
53208;DHT22;39093;52.788;6.940;2022-10-30T07:46:43;13.40;99.90
53208;DHT22;39093;52.788;6.940;2022-10-30T07:49:10;13.40;99.90
53208;DHT22;39093;52.788;6.940;2022-10-30T07:51:37;13.50;99.90
53208;DHT22;39093;52.788;6.940;2022-10-30T07:54:04;13.50;99.90
53208;DHT22;39093;52.788;6.940;2022-10-30T07:56:31;13.50;99.90
53208;DHT22;39093;52.788;6.940;2022-10-30T07:58:57;13.60;99.90
53208;DHT22;39093;52.788;6.940;2022-10-30T08:01:24;13.60;99.90
53208;DHT22;39093;52.788;6.940;2022-10-30T08:03:51;13.60;99.90
53208;DHT22;39093;52.788;6.940;2022-10-30T08:06:18;13.60;99.90
53208;DHT22;39093;52.788;6.940;2022-10-30T08:08:52;13.70;99.90
53208;DHT22;39093;52.788;6.940;2022-10-30T08:11:19;13.80;99.90
53208;DHT22;39093;52.788;6.940;2022-10-30T08:13:45;13.90;99.90
53208;DHT22;39093;52.788;6.940;2022-10-30T08:16:12;13.90;99.90
53208;DHT22;39093;52.788;6.940;2022-10-30T08:18:40;13.90;99.90
53208;DHT22;39093;52.788;6.940;2022-10-30T08:21:09;14.00;99.90
53208;DHT22;39093;52.788;6.940;2022-10-30T08:23:36;14.00;99.90
53208;DHT22;39093;52.788;6.940;2022-10-30T08:26:03;14.10;99.90
53208;DHT22;39093;52.788;6.940;2022-10-30T08:28:31;14.10;99.90
53208;DHT22;39093;52.788;6.940;2022-10-30T08:30:59;14.20;99.90
53208;DHT22;39093;52.788;6.940;2022-10-30T08:33:27;14.30;99.90
53208;DHT22;39093;52.788;6.940;2022-10-30T08:35:56;14.30;99.90
53208;DHT22;39093;52.788;6.940;2022-10-30T08:38:23;14.40;99.90
53208;DHT22;39093;52.788;6.940;2022-10-30T08:40:51;14.40;99.90
53208;DHT22;39093;52.788;6.940;2022-10-30T08:43:18;14.50;99.90
53208;DHT22;39093;52.788;6.940;2022-10-30T08:45:45;14.60;99.90
53208;DHT22;39093;52.788;6.940;2022-10-30T08:48:14;14.60;99.90
53208;DHT22;39093;52.788;6.940;2022-10-30T08:50:41;14.70;99.90
53208;DHT22;39093;52.788;6.940;2022-10-30T08:53:13;14.70;99.90
53208;DHT22;39093;52.788;6.940;2022-10-30T08:55:41;14.70;99.90
53208;DHT22;39093;52.788;6.940;2022-10-30T08:58:07;14.80;99.90
53208;DHT22;39093;52.788;6.940;2022-10-30T09:00:34;14.90;99.90
53208;DHT22;39093;52.788;6.940;2022-10-30T09:03:01;14.90;99.90
53208;DHT22;39093;52.788;6.940;2022-10-30T09:05:29;15.00;99.90
53208;DHT22;39093;52.788;6.940;2022-10-30T09:07:56;15.00;99.90
53208;DHT22;39093;52.788;6.940;2022-10-30T09:10:27;15.00;99.90
53208;DHT22;39093;52.788;6.940;2022-10-30T09:12:55;15.10;99.90
53208;DHT22;39093;52.788;6.940;2022-10-30T09:15:23;15.10;99.90
53208;DHT22;39093;52.788;6.940;2022-10-30T09:17:58;15.10;99.90
53208;DHT22;39093;52.788;6.940;2022-10-30T09:20:26;15.20;99.90
53208;DHT22;39093;52.788;6.940;2022-10-30T09:22:53;15.20;99.90
53208;DHT22;39093;52.788;6.940;2022-10-30T09:25:20;15.20;99.90
53208;DHT22;39093;52.788;6.940;2022-10-30T09:27:47;15.30;99.90
53208;DHT22;39093;52.788;6.940;2022-10-30T09:30:14;15.40;99.90
53208;DHT22;39093;52.788;6.940;2022-10-30T09:32:41;15.40;99.90
53208;DHT22;39093;52.788;6.940;2022-10-30T09:35:08;15.40;99.90
53208;DHT22;39093;52.788;6.940;2022-10-30T09:37:36;15.50;99.90
53208;DHT22;39093;52.788;6.940;2022-10-30T09:40:04;15.60;99.90
53208;DHT22;39093;52.788;6.940;2022-10-30T09:43:06;15.60;99.90
53208;DHT22;39093;52.788;6.940;2022-10-30T09:45:28;15.70;99.90
53208;DHT22;39093;52.788;6.940;2022-10-30T09:54:11;15.80;99.90
53208;DHT22;39093;52.788;6.940;2022-10-30T09:56:44;15.80;99.90
53208;DHT22;39093;52.788;6.940;2022-10-30T10:02:31;16.10;99.90
53208;DHT22;39093;52.788;6.940;2022-10-30T10:07:33;16.10;99.90
53208;DHT22;39093;52.788;6.940;2022-10-30T10:10:08;16.20;99.90
53208;DHT22;39093;52.788;6.940;2022-10-30T10:12:42;16.30;99.90
53208;DHT22;39093;52.788;6.940;2022-10-30T10:15:36;16.30;99.90
53208;DHT22;39093;52.788;6.940;2022-10-30T10:18:15;16.40;99.90
53208;DHT22;39093;52.788;6.940;2022-10-30T10:20:44;16.40;99.90
53208;DHT22;39093;52.788;6.940;2022-10-30T10:23:33;16.40;99.90
53208;DHT22;39093;52.788;6.940;2022-10-30T10:26:28;16.40;99.90
53208;DHT22;39093;52.788;6.940;2022-10-30T10:32:48;16.50;99.90
53208;DHT22;39093;52.788;6.940;2022-10-30T10:37:51;16.60;99.90
53208;DHT22;39093;52.788;6.940;2022-10-30T10:45:54;16.70;99.90
53208;DHT22;39093;52.788;6.940;2022-10-30T10:51:05;16.90;99.90
53208;DHT22;39093;52.788;6.940;2022-10-30T10:54:27;16.90;99.90
53208;DHT22;39093;52.788;6.940;2022-10-30T10:56:36;17.00;99.90
53208;DHT22;39093;52.788;6.940;2022-10-30T10:59:33;17.10;99.90
53208;DHT22;39093;52.788;6.940;2022-10-30T11:04:38;17.30;99.90
53208;DHT22;39093;52.788;6.940;2022-10-30T11:07:18;17.30;99.90
53208;DHT22;39093;52.788;6.940;2022-10-30T11:09:53;17.40;99.90
53208;DHT22;39093;52.788;6.940;2022-10-30T11:12:33;17.40;99.90
53208;DHT22;39093;52.788;6.940;2022-10-30T11:23:00;17.70;99.90
53208;DHT22;39093;52.788;6.940;2022-10-30T11:25:33;17.70;99.90
53208;DHT22;39093;52.788;6.940;2022-10-30T11:28:03;17.90;99.90
53208;DHT22;39093;52.788;6.940;2022-10-30T11:30:31;17.90;99.90
53208;DHT22;39093;52.788;6.940;2022-10-30T11:32:59;17.90;99.90
53208;DHT22;39093;52.788;6.940;2022-10-30T11:35:45;18.00;99.90
53208;DHT22;39093;52.788;6.940;2022-10-30T11:38:18;18.10;99.90
53208;DHT22;39093;52.788;6.940;2022-10-30T11:40:45;18.20;99.90
53208;DHT22;39093;52.788;6.940;2022-10-30T11:43:14;18.30;99.90
53208;DHT22;39093;52.788;6.940;2022-10-30T11:45:43;18.30;99.90
53208;DHT22;39093;52.788;6.940;2022-10-30T11:48:24;18.40;99.90
53208;DHT22;39093;52.788;6.940;2022-10-30T11:50:57;18.50;99.90
53208;DHT22;39093;52.788;6.940;2022-10-30T11:53:28;18.50;99.90
53208;DHT22;39093;52.788;6.940;2022-10-30T11:56:01;18.60;99.90
53208;DHT22;39093;52.788;6.940;2022-10-30T11:58:37;18.70;99.90
53208;DHT22;39093;52.788;6.940;2022-10-30T12:03:40;18.80;99.90
53208;DHT22;39093;52.788;6.940;2022-10-30T12:11:37;19.00;99.90
53208;DHT22;39093;52.788;6.940;2022-10-30T12:14:05;19.10;99.90
53208;DHT22;39093;52.788;6.940;2022-10-30T12:16:32;19.10;99.90
53208;DHT22;39093;52.788;6.940;2022-10-30T12:19:05;19.20;99.90
53208;DHT22;39093;52.788;6.940;2022-10-30T12:21:39;19.20;99.90
53208;DHT22;39093;52.788;6.940;2022-10-30T12:24:23;19.20;99.90
53208;DHT22;39093;52.788;6.940;2022-10-30T12:26:54;19.30;99.90
53208;DHT22;39093;52.788;6.940;2022-10-30T12:29:26;19.40;99.90
53208;DHT22;39093;52.788;6.940;2022-10-30T12:32:23;19.50;99.90
53208;DHT22;39093;52.788;6.940;2022-10-30T12:38:06;19.60;99.90
53208;DHT22;39093;52.788;6.940;2022-10-30T12:40:40;19.60;99.90
53208;DHT22;39093;52.788;6.940;2022-10-30T12:43:18;19.60;99.90
53208;DHT22;39093;52.788;6.940;2022-10-30T12:45:48;19.70;99.90
53208;DHT22;39093;52.788;6.940;2022-10-30T12:48:24;19.70;99.90
53208;DHT22;39093;52.788;6.940;2022-10-30T12:51:21;19.70;99.90
53208;DHT22;39093;52.788;6.940;2022-10-30T12:56:38;19.60;99.90
53208;DHT22;39093;52.788;6.940;2022-10-30T12:59:22;19.60;99.90
53208;DHT22;39093;52.788;6.940;2022-10-30T13:02:07;19.70;99.90
53208;DHT22;39093;52.788;6.940;2022-10-30T13:04:40;19.80;99.90
53208;DHT22;39093;52.788;6.940;2022-10-30T13:07:23;19.80;99.90
53208;DHT22;39093;52.788;6.940;2022-10-30T13:10:10;19.80;99.90
53208;DHT22;39093;52.788;6.940;2022-10-30T13:12:39;19.90;99.90
53208;DHT22;39093;52.788;6.940;2022-10-30T13:15:17;20.00;99.90
53208;DHT22;39093;52.788;6.940;2022-10-30T13:17:46;20.00;99.90
53208;DHT22;39093;52.788;6.940;2022-10-30T13:20:14;20.00;99.90
53208;DHT22;39093;52.788;6.940;2022-10-30T13:23:01;20.00;99.90
53208;DHT22;39093;52.788;6.940;2022-10-30T13:31:24;20.00;99.90
53208;DHT22;39093;52.788;6.940;2022-10-30T13:37:02;20.00;99.90
53208;DHT22;39093;52.788;6.940;2022-10-30T13:50:32;19.90;99.90
53208;DHT22;39093;52.788;6.940;2022-10-30T13:53:06;19.90;99.90
53208;DHT22;39093;52.788;6.940;2022-10-30T13:55:40;19.90;99.90
53208;DHT22;39093;52.788;6.940;2022-10-30T13:58:19;19.90;99.90
53208;DHT22;39093;52.788;6.940;2022-10-30T14:01:16;19.80;99.90
53208;DHT22;39093;52.788;6.940;2022-10-30T14:06:52;19.70;99.90
53208;DHT22;39093;52.788;6.940;2022-10-30T14:13:04;19.60;99.90
53208;DHT22;39093;52.788;6.940;2022-10-30T14:15:40;19.60;99.90
53208;DHT22;39093;52.788;6.940;2022-10-30T14:20:47;19.50;99.90
53208;DHT22;39093;52.788;6.940;2022-10-30T14:23:36;19.50;99.90
53208;DHT22;39093;52.788;6.940;2022-10-30T14:28:38;19.40;99.90
53208;DHT22;39093;52.788;6.940;2022-10-30T14:31:10;19.40;99.90
53208;DHT22;39093;52.788;6.940;2022-10-30T14:33:48;19.30;99.90
53208;DHT22;39093;52.788;6.940;2022-10-30T14:36:46;19.20;99.90
53208;DHT22;39093;52.788;6.940;2022-10-30T14:41:52;19.20;99.90
53208;DHT22;39093;52.788;6.940;2022-10-30T14:55:29;19.10;99.90
53208;DHT22;39093;52.788;6.940;2022-10-30T14:58:24;19.10;99.90
53208;DHT22;39093;52.788;6.940;2022-10-30T15:03:55;19.10;99.90
53208;DHT22;39093;52.788;6.940;2022-10-30T15:09:36;19.10;99.90
53208;DHT22;39093;52.788;6.940;2022-10-30T15:14:44;19.00;99.90
53208;DHT22;39093;52.788;6.940;2022-10-30T15:17:30;18.90;99.90
53208;DHT22;39093;52.788;6.940;2022-10-30T15:20:00;18.90;99.90
53208;DHT22;39093;52.788;6.940;2022-10-30T15:22:29;18.80;99.90
53208;DHT22;39093;52.788;6.940;2022-10-30T15:24:57;18.70;99.90
53208;DHT22;39093;52.788;6.940;2022-10-30T15:27:24;18.70;99.90
53208;DHT22;39093;52.788;6.940;2022-10-30T15:29:54;18.60;99.90
53208;DHT22;39093;52.788;6.940;2022-10-30T15:32:23;18.60;99.90
53208;DHT22;39093;52.788;6.940;2022-10-30T15:34:58;18.50;99.90
53208;DHT22;39093;52.788;6.940;2022-10-30T15:37:29;18.40;99.90
53208;DHT22;39093;52.788;6.940;2022-10-30T15:40:29;18.30;99.90
53208;DHT22;39093;52.788;6.940;2022-10-30T15:42:58;18.20;99.90
53208;DHT22;39093;52.788;6.940;2022-10-30T15:45:31;18.10;99.90
53208;DHT22;39093;52.788;6.940;2022-10-30T15:48:22;18.10;99.90
53208;DHT22;39093;52.788;6.940;2022-10-30T15:51:34;18.00;99.90
53208;DHT22;39093;52.788;6.940;2022-10-30T15:53:58;17.90;99.90
53208;DHT22;39093;52.788;6.940;2022-10-30T15:56:40;17.80;99.90
53208;DHT22;39093;52.788;6.940;2022-10-30T15:59:30;17.80;99.90
53208;DHT22;39093;52.788;6.940;2022-10-30T16:01:58;17.70;99.90
53208;DHT22;39093;52.788;6.940;2022-10-30T16:04:35;17.60;99.90
53208;DHT22;39093;52.788;6.940;2022-10-30T16:07:20;17.50;99.90
53208;DHT22;39093;52.788;6.940;2022-10-30T16:09:58;17.40;99.90
53208;DHT22;39093;52.788;6.940;2022-10-30T16:12:29;17.30;99.90
53208;DHT22;39093;52.788;6.940;2022-10-30T16:15:01;17.30;99.90
53208;DHT22;39093;52.788;6.940;2022-10-30T16:17:29;17.20;99.90
53208;DHT22;39093;52.788;6.940;2022-10-30T16:19:59;17.10;99.90
53208;DHT22;39093;52.788;6.940;2022-10-30T16:22:30;17.10;99.90
53208;DHT22;39093;52.788;6.940;2022-10-30T16:24:59;17.10;99.90
53208;DHT22;39093;52.788;6.940;2022-10-30T16:27:26;17.00;99.90
53208;DHT22;39093;52.788;6.940;2022-10-30T16:29:56;17.00;99.90
53208;DHT22;39093;52.788;6.940;2022-10-30T16:32:28;16.90;99.90
53208;DHT22;39093;52.788;6.940;2022-10-30T16:34:57;16.90;99.90
53208;DHT22;39093;52.788;6.940;2022-10-30T16:37:34;16.80;99.90
53208;DHT22;39093;52.788;6.940;2022-10-30T16:40:15;16.70;99.90
53208;DHT22;39093;52.788;6.940;2022-10-30T16:42:49;16.70;99.90
53208;DHT22;39093;52.788;6.940;2022-10-30T16:47:50;16.60;99.90
53208;DHT22;39093;52.788;6.940;2022-10-30T16:50:19;16.60;99.90
53208;DHT22;39093;52.788;6.940;2022-10-30T16:52:46;16.60;99.90
53208;DHT22;39093;52.788;6.940;2022-10-30T16:55:20;16.50;99.90
53208;DHT22;39093;52.788;6.940;2022-10-30T16:57:53;16.50;99.90
53208;DHT22;39093;52.788;6.940;2022-10-30T17:00:22;16.50;99.90
53208;DHT22;39093;52.788;6.940;2022-10-30T17:02:54;16.50;99.90
53208;DHT22;39093;52.788;6.940;2022-10-30T17:05:25;16.40;99.90
53208;DHT22;39093;52.788;6.940;2022-10-30T17:07:59;16.40;99.90
53208;DHT22;39093;52.788;6.940;2022-10-30T17:16:10;16.20;99.90
53208;DHT22;39093;52.788;6.940;2022-10-30T17:18:37;16.20;99.90
53208;DHT22;39093;52.788;6.940;2022-10-30T17:21:05;16.20;99.90
53208;DHT22;39093;52.788;6.940;2022-10-30T17:23:34;16.20;99.90
53208;DHT22;39093;52.788;6.940;2022-10-30T17:26:08;16.20;99.90
53208;DHT22;39093;52.788;6.940;2022-10-30T17:28:37;16.10;99.90
53208;DHT22;39093;52.788;6.940;2022-10-30T17:34:18;16.00;99.90
53208;DHT22;39093;52.788;6.940;2022-10-30T17:36:46;16.00;99.90
53208;DHT22;39093;52.788;6.940;2022-10-30T17:39:14;16.00;99.90
53208;DHT22;39093;52.788;6.940;2022-10-30T17:41:41;15.90;99.90
53208;DHT22;39093;52.788;6.940;2022-10-30T17:44:19;15.90;99.90
53208;DHT22;39093;52.788;6.940;2022-10-30T17:46:47;15.90;99.90
53208;DHT22;39093;52.788;6.940;2022-10-30T17:51:50;16.00;99.90
53208;DHT22;39093;52.788;6.940;2022-10-30T17:54:18;16.00;99.90
53208;DHT22;39093;52.788;6.940;2022-10-30T17:56:44;15.90;99.90
53208;DHT22;39093;52.788;6.940;2022-10-30T17:59:11;16.00;99.90
53208;DHT22;39093;52.788;6.940;2022-10-30T18:01:41;16.00;99.90
53208;DHT22;39093;52.788;6.940;2022-10-30T18:04:12;16.10;99.90
53208;DHT22;39093;52.788;6.940;2022-10-30T18:06:47;16.10;99.90
53208;DHT22;39093;52.788;6.940;2022-10-30T18:09:14;16.10;99.90
53208;DHT22;39093;52.788;6.940;2022-10-30T18:11:41;16.10;99.90
53208;DHT22;39093;52.788;6.940;2022-10-30T18:14:10;16.20;99.90
53208;DHT22;39093;52.788;6.940;2022-10-30T18:16:37;16.20;99.90
53208;DHT22;39093;52.788;6.940;2022-10-30T18:19:09;16.20;99.90